createdAt,value
2022-12-25T00:02:00.119Z,19.27
2022-12-25T00:04:26.651Z,19.60
2022-12-25T00:06:53.335Z,20.30
2022-12-25T00:09:19.983Z,20.05
2022-12-25T00:11:46.552Z,20.33
2022-12-25T00:14:13.189Z,21.10
2022-12-25T00:16:39.816Z,20.48
2022-12-25T00:19:06.365Z,18.75
2022-12-25T00:21:33.484Z,19.25
2022-12-25T00:24:00.244Z,18.27
2022-12-25T00:26:27.805Z,17.65
2022-12-25T00:28:56.177Z,17.75
2022-12-25T00:31:24.514Z,18.73
2022-12-25T00:33:52.184Z,15.95
2022-12-25T00:36:21.025Z,17.17
2022-12-25T00:38:47.930Z,17.42
2022-12-25T00:41:17.463Z,17.05
2022-12-25T00:43:44.506Z,17.63
2022-12-25T00:46:13.137Z,17.35
2022-12-25T00:48:39.905Z,16.67
2022-12-25T00:51:08.630Z,18.23
2022-12-25T00:53:35.313Z,19.98
2022-12-25T00:56:06.434Z,20.50
2022-12-25T00:58:35.415Z,20.10
2022-12-25T01:01:02.971Z,21.10
2022-12-25T01:03:29.946Z,20.98
2022-12-25T01:06:01.980Z,19.80
2022-12-25T01:08:31.195Z,18.83
2022-12-25T01:11:00.956Z,20.00
2022-12-25T01:13:29.078Z,18.58
2022-12-25T01:15:55.924Z,20.10
2022-12-25T01:18:24.323Z,19.83
2022-12-25T01:20:51.678Z,18.80
2022-12-25T01:23:18.266Z,19.98
2022-12-25T01:25:44.833Z,19.10
2022-12-25T01:28:11.543Z,20.23
2022-12-25T01:30:38.169Z,18.55
2022-12-25T01:33:04.857Z,19.15
2022-12-25T01:35:31.589Z,19.23
2022-12-25T01:37:58.691Z,18.27
2022-12-25T01:40:25.207Z,19.05
2022-12-25T01:42:51.996Z,19.77
2022-12-25T01:45:36.816Z,17.95
2022-12-25T01:48:08.799Z,17.17
2022-12-25T01:50:39.162Z,15.95
2022-12-25T01:53:06.415Z,15.65
2022-12-25T01:55:34.099Z,14.75
2022-12-25T01:58:00.832Z,16.65
2022-12-25T02:03:16.434Z,14.77
2022-12-25T02:05:43.687Z,15.48
2022-12-25T02:08:12.654Z,15.77
2022-12-25T02:10:39.324Z,15.80
2022-12-25T02:13:07.946Z,16.05
2022-12-25T02:16:12.807Z,14.82
2022-12-25T02:18:53.552Z,13.93
2022-12-25T02:21:30.400Z,13.48
2022-12-25T02:24:34.556Z,15.20
2022-12-25T02:27:16.213Z,13.23
2022-12-25T02:30:07.027Z,14.23
2022-12-25T02:33:17.105Z,12.75
2022-12-25T02:35:47.497Z,11.18
2022-12-25T02:38:24.768Z,11.38
2022-12-25T02:40:59.193Z,12.52
2022-12-25T02:43:52.088Z,11.90
2022-12-25T02:46:42.510Z,12.10
2022-12-25T02:49:34.867Z,11.15
2022-12-25T02:52:27.368Z,10.77
2022-12-25T02:55:21.688Z,10.68
2022-12-25T02:58:09.350Z,10.68
2022-12-25T03:00:59.584Z,10.02
2022-12-25T03:03:49.360Z,9.80
2022-12-25T03:06:34.624Z,10.20
2022-12-25T03:09:23.024Z,9.43
2022-12-25T03:11:57.083Z,9.20
2022-12-25T03:14:42.499Z,9.15
2022-12-25T03:17:09.372Z,9.60
2022-12-25T03:19:54.320Z,9.35
2022-12-25T03:22:47.451Z,8.50
2022-12-25T03:25:33.397Z,9.25
2022-12-25T03:28:00.271Z,8.93
2022-12-25T03:30:51.470Z,8.80
2022-12-25T03:33:50.494Z,8.60
2022-12-25T03:36:28.688Z,8.68
2022-12-25T03:39:46.474Z,9.35
2022-12-25T03:42:34.210Z,9.07
2022-12-25T03:45:27.959Z,8.93
2022-12-25T03:48:15.338Z,9.32
2022-12-25T03:51:12.879Z,9.02
2022-12-25T03:54:08.384Z,10.25
2022-12-25T03:56:55.628Z,11.68
2022-12-25T03:59:42.698Z,11.43
2022-12-25T04:02:28.879Z,11.70
2022-12-25T04:05:14.188Z,11.23
2022-12-25T04:08:00.241Z,10.60
2022-12-25T04:10:45.734Z,10.75
2022-12-25T04:13:31.170Z,11.40
2022-12-25T04:16:16.086Z,11.02
2022-12-25T04:19:01.430Z,11.13
2022-12-25T04:21:46.297Z,10.25
2022-12-25T04:24:31.901Z,11.63
2022-12-25T04:27:16.956Z,10.93
2022-12-25T04:30:02.262Z,10.18
2022-12-25T04:32:47.260Z,8.35
2022-12-25T04:35:32.779Z,9.02
2022-12-25T04:37:59.457Z,7.88
2022-12-25T04:40:26.004Z,8.23
2022-12-25T04:42:53.155Z,7.65
2022-12-25T04:45:19.733Z,7.38
2022-12-25T04:47:46.333Z,7.82
2022-12-25T04:50:12.953Z,7.68
2022-12-25T04:52:41.103Z,7.70
2022-12-25T04:55:09.710Z,8.02
2022-12-25T04:57:36.359Z,7.72
2022-12-25T05:00:04.436Z,7.28
2022-12-25T05:02:31.765Z,7.50
2022-12-25T05:04:58.507Z,7.65
2022-12-25T05:07:25.036Z,7.43
2022-12-25T05:09:51.675Z,8.30
2022-12-25T05:12:18.375Z,7.15
2022-12-25T05:14:44.873Z,8.68
2022-12-25T05:17:11.458Z,7.78
2022-12-25T05:19:38.040Z,7.75
2022-12-25T05:22:04.551Z,7.65
2022-12-25T05:24:31.163Z,8.02
2022-12-25T05:26:57.852Z,7.80
2022-12-25T05:29:24.337Z,7.30
2022-12-25T05:31:51.077Z,6.85
2022-12-25T05:34:17.773Z,7.57
2022-12-25T05:36:44.286Z,7.50
2022-12-25T05:39:10.949Z,7.32
2022-12-25T05:41:37.577Z,7.07
2022-12-25T05:44:04.278Z,6.88
2022-12-25T05:46:30.869Z,7.75
2022-12-25T05:48:57.505Z,6.85
2022-12-25T05:51:25.198Z,7.15
2022-12-25T05:53:52.000Z,7.72
2022-12-25T05:56:18.617Z,7.07
2022-12-25T05:58:45.123Z,8.30
2022-12-25T06:01:19.408Z,7.13
2022-12-25T06:03:46.106Z,7.10
2022-12-25T06:06:13.214Z,7.53
2022-12-25T06:08:39.903Z,7.72
2022-12-25T06:11:07.620Z,8.00
2022-12-25T06:13:35.153Z,7.53
2022-12-25T06:16:06.101Z,8.95
2022-12-25T06:21:01.579Z,7.50
2022-12-25T06:23:28.237Z,8.35
2022-12-25T06:25:54.806Z,8.55
2022-12-25T06:28:21.438Z,8.63
2022-12-25T06:30:48.026Z,7.95
2022-12-25T06:33:14.627Z,9.25
2022-12-25T06:35:41.197Z,7.90
2022-12-25T06:38:07.787Z,7.65
2022-12-25T06:40:35.120Z,8.55
2022-12-25T06:43:01.839Z,8.85
2022-12-25T06:45:28.478Z,8.57
2022-12-25T06:47:55.045Z,9.43
2022-12-25T06:50:21.759Z,8.82
2022-12-25T06:52:49.304Z,8.45
2022-12-25T06:55:15.798Z,9.00
2022-12-25T06:57:42.438Z,9.38
2022-12-25T07:00:09.578Z,9.68
2022-12-25T07:02:38.633Z,8.52
2022-12-25T07:05:05.651Z,8.70
2022-12-25T07:07:32.351Z,9.93
2022-12-25T07:09:58.870Z,9.18
2022-12-25T07:12:25.761Z,9.30
2022-12-25T07:14:55.204Z,9.30
2022-12-25T07:17:23.120Z,8.80
2022-12-25T07:19:50.173Z,8.93
2022-12-25T07:22:17.420Z,8.60
2022-12-25T07:24:44.218Z,8.77
2022-12-25T07:27:10.914Z,9.18
2022-12-25T07:29:37.469Z,7.93
2022-12-25T07:32:04.495Z,8.32
2022-12-25T07:34:31.091Z,8.48
2022-12-25T07:36:57.664Z,7.60
2022-12-25T07:39:24.190Z,8.23
2022-12-25T07:41:51.329Z,8.13
2022-12-25T07:44:18.094Z,6.47
2022-12-25T07:46:45.205Z,6.40
2022-12-25T07:49:12.331Z,7.18
2022-12-25T07:51:39.126Z,6.45
2022-12-25T07:54:05.849Z,7.18
2022-12-25T07:56:32.425Z,7.15
2022-12-25T07:58:59.050Z,7.25
2022-12-25T08:01:27.242Z,6.32
2022-12-25T08:03:56.927Z,6.20
2022-12-25T08:06:29.747Z,6.32
2022-12-25T08:09:01.915Z,6.93
2022-12-25T08:11:28.419Z,6.45
2022-12-25T08:13:54.995Z,5.85
2022-12-25T08:16:21.710Z,5.25
2022-12-25T08:18:48.483Z,6.00
2022-12-25T08:21:15.849Z,6.82
2022-12-25T08:23:44.558Z,6.13
2022-12-25T08:26:13.817Z,6.50
2022-12-25T08:28:40.977Z,5.18
2022-12-25T08:31:14.103Z,5.80
2022-12-25T08:33:40.949Z,5.75
2022-12-25T08:36:09.702Z,5.75
2022-12-25T08:38:37.057Z,5.63
2022-12-25T08:41:04.229Z,5.70
2022-12-25T08:43:31.159Z,5.38
2022-12-25T08:45:57.678Z,5.75
2022-12-25T08:48:24.423Z,5.53
2022-12-25T08:50:53.457Z,6.30
2022-12-25T08:53:20.573Z,6.00
2022-12-25T08:55:47.719Z,6.63
2022-12-25T08:58:14.748Z,6.15
2022-12-25T09:00:41.351Z,6.50
2022-12-25T09:03:08.149Z,6.15
2022-12-25T09:05:35.868Z,5.82
2022-12-25T09:08:02.399Z,6.25
2022-12-25T09:10:29.175Z,6.00
2022-12-25T09:12:55.744Z,5.95
2022-12-25T09:15:22.273Z,5.40
2022-12-25T09:17:48.933Z,6.13
2022-12-25T09:20:15.854Z,5.63
2022-12-25T09:22:42.439Z,5.40
2022-12-25T09:25:09.635Z,5.43
2022-12-25T09:27:36.260Z,5.32
2022-12-25T09:30:03.150Z,5.80
2022-12-25T09:32:30.008Z,5.53
2022-12-25T09:34:56.594Z,5.50
2022-12-25T09:37:23.114Z,5.47
2022-12-25T09:39:49.714Z,5.13
2022-12-25T09:42:25.744Z,5.28
2022-12-25T09:44:59.243Z,5.13
2022-12-25T09:47:30.748Z,5.88
2022-12-25T09:50:21.500Z,5.20
2022-12-25T09:53:07.424Z,4.80
2022-12-25T09:55:38.718Z,5.05
2022-12-25T09:58:12.838Z,4.95
2022-12-25T10:00:43.370Z,4.40
2022-12-25T10:03:31.642Z,4.95
2022-12-25T10:06:26.353Z,4.75
2022-12-25T10:09:03.776Z,4.88
2022-12-25T10:11:45.345Z,5.32
2022-12-25T10:14:18.204Z,5.15
2022-12-25T10:16:47.697Z,5.32
2022-12-25T10:19:27.599Z,5.30
2022-12-25T10:21:58.403Z,5.88
2022-12-25T10:27:21.066Z,5.53
2022-12-25T10:29:52.242Z,5.50
2022-12-25T10:32:18.751Z,6.25
2022-12-25T10:34:45.511Z,6.55
2022-12-25T10:37:12.559Z,6.03
2022-12-25T10:39:45.862Z,6.40
2022-12-25T10:42:29.655Z,6.13
2022-12-25T10:45:02.139Z,5.25
2022-12-25T10:47:33.244Z,5.80
2022-12-25T10:50:01.994Z,5.38
2022-12-25T10:52:29.344Z,5.40
2022-12-25T10:54:56.589Z,5.60
2022-12-25T10:57:25.389Z,5.45
2022-12-25T10:59:57.734Z,5.65
2022-12-25T11:02:39.613Z,5.38
2022-12-25T11:05:10.065Z,5.50
2022-12-25T11:07:51.329Z,5.57
2022-12-25T11:10:17.992Z,5.75
2022-12-25T11:12:46.100Z,5.53
2022-12-25T11:15:42.909Z,5.47
2022-12-25T11:18:27.095Z,5.35
2022-12-25T11:20:55.251Z,5.78
2022-12-25T11:23:23.963Z,5.13
2022-12-25T11:26:02.451Z,5.13
2022-12-25T11:28:31.366Z,5.22
2022-12-25T11:31:07.103Z,5.28
2022-12-25T11:33:45.258Z,5.45
2022-12-25T11:36:32.369Z,4.18
2022-12-25T11:39:09.678Z,4.32
2022-12-25T11:41:37.913Z,4.93
2022-12-25T11:44:19.199Z,4.68
2022-12-25T11:46:50.401Z,3.78
2022-12-25T11:49:20.030Z,3.40
2022-12-25T11:51:51.704Z,2.80
2022-12-25T11:54:27.723Z,2.17
2022-12-25T11:56:57.780Z,2.05
2022-12-25T11:59:30.371Z,2.03
2022-12-25T12:02:38.528Z,2.55
2022-12-25T12:05:15.295Z,2.55
2022-12-25T12:07:53.501Z,2.47
2022-12-25T12:10:28.197Z,2.30
2022-12-25T12:13:16.517Z,2.05
2022-12-25T12:15:47.316Z,1.92
2022-12-25T12:21:05.732Z,1.60
2022-12-25T12:23:48.980Z,2.10
2022-12-25T12:26:21.167Z,1.58
2022-12-25T12:28:48.796Z,1.88
2022-12-25T12:31:15.966Z,1.70
2022-12-25T12:33:56.257Z,1.60
2022-12-25T12:36:35.662Z,1.38
2022-12-25T12:39:05.214Z,1.98
2022-12-25T12:41:45.923Z,1.60
2022-12-25T12:44:14.386Z,1.67
2022-12-25T12:46:58.834Z,1.83
2022-12-25T12:49:28.654Z,1.80
2022-12-25T12:52:10.599Z,2.05
2022-12-25T12:55:13.169Z,1.80
2022-12-25T12:57:41.216Z,1.60
2022-12-25T13:00:21.299Z,1.52
2022-12-25T13:02:57.291Z,1.65
2022-12-25T13:05:46.171Z,1.50
2022-12-25T13:08:31.587Z,1.60
2022-12-25T13:11:06.799Z,1.70
2022-12-25T13:13:40.524Z,1.83
2022-12-25T13:16:16.633Z,1.90
2022-12-25T13:18:43.532Z,1.65
2022-12-25T13:21:19.142Z,1.60
2022-12-25T13:23:45.745Z,1.55
2022-12-25T13:26:15.062Z,1.63
2022-12-25T13:28:41.682Z,1.70
2022-12-25T13:31:21.621Z,1.83
2022-12-25T13:34:23.468Z,1.98
2022-12-25T13:36:50.361Z,1.42
2022-12-25T13:39:18.080Z,2.17
2022-12-25T13:42:06.362Z,1.67
2022-12-25T13:44:44.216Z,1.40
2022-12-25T13:47:21.980Z,1.50
2022-12-25T13:49:49.700Z,1.33
2022-12-25T13:52:23.802Z,1.55
2022-12-25T13:55:16.501Z,1.40
2022-12-25T13:57:50.479Z,1.50
2022-12-25T14:00:20.935Z,1.50
2022-12-25T14:02:47.962Z,1.70
2022-12-25T14:05:43.241Z,1.70
2022-12-25T14:08:22.047Z,1.50
2022-12-25T14:10:51.913Z,1.40
2022-12-25T14:13:20.943Z,1.95
2022-12-25T14:15:51.025Z,1.40
2022-12-25T14:18:19.261Z,1.33
2022-12-25T14:21:05.305Z,1.40
2022-12-25T14:23:42.819Z,1.20
2022-12-25T14:26:31.040Z,1.50
2022-12-25T14:29:15.566Z,1.20
2022-12-25T14:31:44.399Z,1.60
2022-12-25T14:34:17.001Z,1.50
2022-12-25T14:36:43.694Z,1.60
2022-12-25T14:39:36.508Z,1.63
2022-12-25T14:42:24.645Z,1.50
2022-12-25T14:45:06.913Z,1.30
2022-12-25T14:47:49.685Z,1.60
2022-12-25T14:50:37.417Z,2.30
2022-12-25T14:53:05.715Z,1.30
2022-12-25T14:55:32.494Z,1.40
2022-12-25T14:58:06.018Z,1.30
2022-12-25T15:00:38.600Z,1.35
2022-12-25T15:03:17.343Z,1.73
2022-12-25T15:05:44.053Z,1.50
2022-12-25T15:08:13.462Z,1.33
2022-12-25T15:13:27.893Z,1.40
2022-12-25T15:16:02.356Z,1.40
2022-12-25T15:18:33.080Z,1.48
2022-12-25T15:20:59.986Z,1.70
2022-12-25T15:23:26.768Z,1.55
2022-12-25T15:25:53.546Z,1.48
2022-12-25T15:28:20.786Z,1.30
2022-12-25T15:30:48.087Z,1.60
2022-12-25T15:33:16.532Z,1.27
2022-12-25T15:35:44.437Z,1.30
2022-12-25T15:38:12.891Z,1.30
2022-12-25T15:40:39.851Z,1.30
2022-12-25T15:43:14.589Z,1.52
2022-12-25T15:45:47.712Z,1.38
2022-12-25T15:48:14.334Z,1.48
2022-12-25T15:50:40.904Z,1.60
2022-12-25T15:53:07.768Z,1.33
2022-12-25T15:55:34.681Z,1.30
2022-12-25T15:58:01.223Z,1.30
2022-12-25T16:00:27.975Z,1.30
2022-12-25T16:02:54.715Z,1.17
2022-12-25T16:05:22.157Z,1.33
2022-12-25T16:07:49.272Z,1.40
2022-12-25T16:10:19.198Z,1.33
2022-12-25T16:12:46.600Z,1.27
2022-12-25T16:15:15.115Z,1.80
2022-12-25T16:17:41.994Z,1.60
2022-12-25T16:20:09.730Z,1.80
2022-12-25T16:22:40.175Z,1.52
2022-12-25T16:25:13.364Z,1.60
2022-12-25T16:27:39.938Z,2.75
2022-12-25T16:30:07.314Z,2.55
2022-12-25T16:32:33.871Z,2.70
2022-12-25T16:35:00.468Z,2.90
2022-12-25T16:37:27.771Z,2.50
2022-12-25T16:39:54.265Z,2.30
2022-12-25T16:42:21.080Z,2.03
2022-12-25T16:44:47.765Z,2.33
2022-12-25T16:47:14.298Z,2.28
2022-12-25T16:49:41.725Z,2.35
2022-12-25T16:52:08.326Z,2.53
2022-12-25T16:54:34.855Z,2.70
2022-12-25T16:57:01.412Z,2.70
2022-12-25T16:59:29.112Z,2.80
2022-12-25T17:01:55.743Z,2.63
2022-12-25T17:04:22.508Z,2.78
2022-12-25T17:06:50.379Z,2.60
2022-12-25T17:09:16.919Z,2.67
2022-12-25T17:11:43.466Z,2.72
2022-12-25T17:14:10.303Z,3.05
2022-12-25T17:16:38.088Z,3.40
2022-12-25T17:19:16.120Z,4.13
2022-12-25T17:21:42.647Z,3.70
2022-12-25T17:24:09.785Z,4.43
2022-12-25T17:26:36.638Z,3.35
2022-12-25T17:29:03.392Z,3.13
2022-12-25T17:31:30.685Z,3.50
2022-12-25T17:33:57.868Z,3.28
2022-12-25T17:36:24.916Z,3.28
2022-12-25T17:38:51.663Z,3.20
2022-12-25T17:41:20.149Z,3.42
2022-12-25T17:43:47.808Z,3.10
2022-12-25T17:46:32.834Z,2.60
2022-12-25T17:49:01.121Z,2.90
2022-12-25T17:51:31.849Z,3.58
2022-12-25T17:54:03.272Z,3.35
2022-12-25T17:56:31.000Z,3.42
2022-12-25T17:59:00.348Z,3.85
2022-12-25T18:01:28.817Z,4.50
2022-12-25T18:03:55.999Z,3.92
2022-12-25T18:06:25.145Z,4.13
2022-12-25T18:08:51.787Z,4.45
2022-12-25T18:11:21.854Z,5.43
2022-12-25T18:13:51.850Z,5.47
2022-12-25T18:16:21.279Z,4.90
2022-12-25T18:18:52.255Z,4.93
2022-12-25T18:21:21.642Z,4.50
2022-12-25T18:23:48.676Z,5.03
2022-12-25T18:26:15.450Z,4.35
2022-12-25T18:28:42.767Z,4.93
2022-12-25T18:31:27.824Z,4.47
2022-12-25T18:33:54.620Z,4.97
2022-12-25T18:36:23.951Z,4.30
2022-12-25T18:38:52.104Z,4.63
2022-12-25T18:41:18.886Z,5.35
2022-12-25T18:43:52.683Z,4.47
2022-12-25T18:46:26.220Z,4.80
2022-12-25T18:48:54.740Z,4.35
2022-12-25T18:51:21.303Z,4.90
2022-12-25T18:53:47.954Z,4.55
2022-12-25T18:56:17.312Z,4.80
2022-12-25T18:58:45.154Z,4.72
2022-12-25T19:01:18.058Z,5.32
2022-12-25T19:03:45.818Z,5.38
2022-12-25T19:06:23.943Z,5.78
2022-12-25T19:08:50.963Z,5.32
2022-12-25T19:11:18.458Z,4.97
2022-12-25T19:13:45.904Z,5.97
2022-12-25T19:16:12.891Z,5.47
2022-12-25T19:18:40.063Z,5.35
2022-12-25T19:21:09.305Z,5.32
2022-12-25T19:23:36.657Z,5.18
2022-12-25T19:26:08.373Z,5.35
2022-12-25T19:28:35.774Z,5.40
2022-12-25T19:31:03.300Z,5.75
2022-12-25T19:33:34.030Z,5.72
2022-12-25T19:36:02.174Z,6.13
2022-12-25T19:38:28.849Z,6.55
2022-12-25T19:41:01.380Z,6.72
2022-12-25T19:43:29.833Z,6.63
2022-12-25T19:45:56.923Z,7.53
2022-12-25T19:48:24.144Z,7.70
2022-12-25T19:50:51.281Z,6.78
2022-12-25T19:53:18.442Z,6.60
2022-12-25T19:55:45.527Z,6.53
2022-12-25T19:58:12.400Z,6.90
2022-12-25T20:00:40.414Z,6.30
2022-12-25T20:03:07.521Z,6.10
2022-12-25T20:05:34.514Z,6.70
2022-12-25T20:08:01.406Z,7.10
2022-12-25T20:10:27.995Z,7.90
2022-12-25T20:12:54.576Z,7.05
2022-12-25T20:15:21.223Z,7.03
2022-12-25T20:17:47.764Z,7.22
2022-12-25T20:20:14.516Z,7.65
2022-12-25T20:22:41.136Z,8.35
2022-12-25T20:25:09.799Z,8.13
2022-12-25T20:27:36.577Z,7.50
2022-12-25T20:30:03.534Z,8.00
2022-12-25T20:32:30.055Z,7.55
2022-12-25T20:34:56.737Z,8.98
2022-12-25T20:37:23.339Z,8.80
2022-12-25T20:39:49.838Z,8.65
2022-12-25T20:42:16.453Z,9.05
2022-12-25T20:44:43.054Z,8.98
2022-12-25T20:47:09.989Z,9.77
2022-12-25T20:49:36.569Z,9.48
2022-12-25T20:52:05.746Z,9.57
2022-12-25T20:54:32.746Z,10.02
2022-12-25T20:56:59.611Z,9.43
2022-12-25T20:59:27.211Z,8.80
2022-12-25T21:01:56.673Z,9.63
2022-12-25T21:04:23.530Z,10.00
2022-12-25T21:06:50.193Z,10.05
2022-12-25T21:09:16.767Z,9.57
2022-12-25T21:11:43.434Z,9.38
2022-12-25T21:14:10.055Z,10.90
2022-12-25T21:16:36.725Z,10.30
2022-12-25T21:19:03.544Z,9.02
2022-12-25T21:21:30.961Z,8.98
2022-12-25T21:23:57.657Z,9.23
2022-12-25T21:26:29.238Z,9.80
2022-12-25T21:29:00.212Z,10.70
2022-12-25T21:31:27.379Z,10.00
2022-12-25T21:33:55.457Z,9.98
2022-12-25T21:36:34.309Z,10.43
2022-12-25T21:39:11.059Z,9.57
2022-12-25T21:41:38.860Z,9.98
2022-12-25T21:44:06.338Z,9.70
2022-12-25T21:46:33.059Z,10.38
2022-12-25T21:49:00.633Z,10.43
2022-12-25T21:51:48.999Z,8.93
2022-12-25T21:54:16.771Z,8.98
2022-12-25T21:56:45.666Z,9.57
2022-12-25T21:59:15.620Z,9.05
2022-12-25T22:01:43.658Z,9.80
2022-12-25T22:04:11.126Z,9.95
2022-12-25T22:06:55.976Z,10.38
2022-12-25T22:09:23.471Z,9.20
2022-12-25T22:12:08.897Z,9.63
2022-12-25T22:14:54.740Z,9.90
2022-12-25T22:17:43.185Z,8.93
2022-12-25T22:20:13.587Z,8.40
2022-12-25T22:22:40.151Z,8.48
2022-12-25T22:25:07.164Z,8.88
2022-12-25T22:27:36.031Z,9.13
2022-12-25T22:30:02.656Z,10.02
2022-12-25T22:32:29.466Z,10.18
2022-12-25T22:34:56.223Z,9.35
2022-12-25T22:37:23.074Z,9.88
2022-12-25T22:39:49.875Z,8.93
2022-12-25T22:42:16.582Z,10.63
2022-12-25T22:44:43.490Z,9.65
2022-12-25T22:47:10.216Z,10.02
2022-12-25T22:49:36.833Z,9.38
2022-12-25T22:52:03.555Z,9.32
2022-12-25T22:54:31.682Z,10.88
2022-12-25T22:56:59.355Z,11.27
2022-12-25T22:59:26.190Z,10.40
2022-12-25T23:01:53.255Z,10.23
2022-12-25T23:04:20.116Z,11.18
2022-12-25T23:06:47.039Z,9.52
2022-12-25T23:09:22.106Z,9.82
2022-12-25T23:14:35.960Z,10.15
2022-12-25T23:17:02.573Z,10.10
2022-12-25T23:19:47.804Z,10.18
2022-12-25T23:22:32.982Z,9.57
2022-12-25T23:25:18.131Z,10.65
2022-12-25T23:27:45.524Z,10.73
2022-12-25T23:30:16.247Z,9.90
2022-12-25T23:32:44.101Z,10.98
2022-12-25T23:35:11.585Z,10.85
2022-12-25T23:37:38.116Z,10.80
2022-12-25T23:40:05.378Z,11.55
2022-12-25T23:42:32.015Z,11.50
2022-12-25T23:44:58.575Z,11.38
2022-12-25T23:47:25.235Z,12.10
2022-12-25T23:49:51.811Z,12.18
2022-12-25T23:52:18.330Z,12.32
2022-12-25T23:54:45.007Z,12.15
2022-12-25T23:57:11.700Z,12.85
2022-12-25T23:59:38.375Z,12.20
